createdAt,value
2018-06-04T00:02:07.765Z,17.59
2018-06-04T00:04:35.968Z,17.62
2018-06-04T00:07:04.132Z,17.63
2018-06-04T00:09:32.390Z,17.63
2018-06-04T00:12:00.806Z,17.63
2018-06-04T00:14:29.117Z,17.62
2018-06-04T00:16:57.362Z,17.59
2018-06-04T00:19:25.514Z,17.52
2018-06-04T00:21:53.538Z,17.49
2018-06-04T00:24:22.372Z,17.47
2018-06-04T00:26:50.424Z,17.47
2018-06-04T00:29:18.480Z,17.44
2018-06-04T00:31:46.549Z,17.45
2018-06-04T00:34:14.583Z,17.45
2018-06-04T00:36:49.669Z,17.45
2018-06-04T00:39:17.708Z,17.45
2018-06-04T00:41:45.755Z,17.42
2018-06-04T00:44:13.934Z,17.40
2018-06-04T00:46:41.975Z,17.40
2018-06-04T00:49:10.050Z,17.39
2018-06-04T00:51:38.292Z,17.36
2018-06-04T00:54:06.505Z,17.38
2018-06-04T00:56:34.797Z,17.36
2018-06-04T00:59:02.944Z,17.36
2018-06-04T01:01:31.401Z,17.34
2018-06-04T01:03:59.429Z,17.34
2018-06-04T01:06:27.448Z,17.37
2018-06-04T01:08:55.484Z,17.38
2018-06-04T01:11:23.515Z,17.37
2018-06-04T01:13:51.591Z,17.35
2018-06-04T01:16:19.620Z,17.33
2018-06-04T01:18:47.667Z,17.32
2018-06-04T01:21:15.700Z,17.28
2018-06-04T01:23:43.723Z,17.26
2018-06-04T01:26:12.040Z,17.23
2018-06-04T01:28:40.079Z,17.21
2018-06-04T01:31:08.096Z,17.18
2018-06-04T01:33:36.212Z,17.14
2018-06-04T01:36:04.255Z,17.08
2018-06-04T01:38:32.295Z,17.04
2018-06-04T01:41:00.393Z,17.00
2018-06-04T01:43:28.427Z,16.97
2018-06-04T01:45:56.462Z,16.93
2018-06-04T01:48:24.497Z,16.92
2018-06-04T01:50:52.560Z,16.89
2018-06-04T01:53:20.616Z,16.81
2018-06-04T01:55:48.660Z,16.74
2018-06-04T01:58:16.707Z,16.69
2018-06-04T02:00:45.101Z,16.68
2018-06-04T02:03:13.304Z,16.69
2018-06-04T02:05:41.355Z,16.70
2018-06-04T02:08:09.384Z,16.69
2018-06-04T02:10:37.429Z,16.69
2018-06-04T02:13:05.469Z,16.68
2018-06-04T02:15:33.491Z,16.64
2018-06-04T02:18:01.528Z,16.57
2018-06-04T02:20:29.582Z,16.57
2018-06-04T02:22:57.640Z,16.53
2018-06-04T02:25:25.806Z,16.46
2018-06-04T02:27:53.887Z,16.38
2018-06-04T02:30:22.017Z,16.30
2018-06-04T02:32:50.140Z,16.26
2018-06-04T02:35:18.200Z,16.23
2018-06-04T02:37:46.284Z,16.23
2018-06-04T02:40:14.371Z,16.25
2018-06-04T02:42:42.424Z,16.23
2018-06-04T02:45:10.573Z,16.11
2018-06-04T02:47:38.773Z,16.09
2018-06-04T02:50:06.981Z,16.06
2018-06-04T02:52:35.254Z,16.04
2018-06-04T02:55:03.418Z,16.05
2018-06-04T02:57:31.663Z,16.06
2018-06-04T02:59:59.989Z,16.08
2018-06-04T03:02:28.154Z,16.01
2018-06-04T03:04:56.232Z,15.86
2018-06-04T03:07:24.425Z,15.80
2018-06-04T03:09:52.536Z,15.80
2018-06-04T03:12:20.588Z,15.82
2018-06-04T03:14:48.665Z,15.84
2018-06-04T03:17:16.703Z,15.88
2018-06-04T03:19:44.779Z,15.87
2018-06-04T03:22:12.839Z,15.81
2018-06-04T03:24:40.920Z,15.83
2018-06-04T03:27:08.996Z,15.89
2018-06-04T03:29:37.152Z,15.94
2018-06-04T03:32:05.314Z,15.99
2018-06-04T03:34:33.442Z,16.05
2018-06-04T03:37:01.775Z,16.07
2018-06-04T03:39:30.022Z,16.12
2018-06-04T03:41:58.249Z,16.15
2018-06-04T03:44:26.724Z,16.24
2018-06-04T03:46:54.907Z,16.32
2018-06-04T03:49:23.003Z,16.35
2018-06-04T03:51:51.107Z,16.49
2018-06-04T03:54:19.183Z,16.56
2018-06-04T03:56:47.262Z,16.62
2018-06-04T03:59:15.518Z,16.66
2018-06-04T04:01:43.585Z,16.73
2018-06-04T04:04:11.615Z,16.82
2018-06-04T04:06:39.664Z,16.89
2018-06-04T04:09:09.184Z,16.96
2018-06-04T04:11:37.252Z,17.01
2018-06-04T04:14:05.548Z,17.09
2018-06-04T04:16:33.571Z,17.14
2018-06-04T04:19:01.620Z,17.19
2018-06-04T04:21:29.668Z,17.22
2018-06-04T04:23:57.911Z,17.45
2018-06-04T04:26:25.972Z,17.93
2018-06-04T04:28:54.012Z,18.46
2018-06-04T04:31:22.316Z,19.02
2018-06-04T04:33:50.384Z,19.64
2018-06-04T04:36:18.427Z,20.19
2018-06-04T04:38:46.484Z,20.67
2018-06-04T04:41:14.543Z,21.13
2018-06-04T04:43:42.588Z,21.62
2018-06-04T04:46:10.649Z,21.96
2018-06-04T04:48:38.685Z,22.38
2018-06-04T04:51:07.053Z,22.95
2018-06-04T04:53:35.112Z,23.51
2018-06-04T04:56:03.176Z,23.94
2018-06-04T04:58:31.228Z,24.34
2018-06-04T05:00:59.269Z,24.70
2018-06-04T05:03:30.387Z,24.85
2018-06-04T05:05:58.440Z,24.98
2018-06-04T05:08:26.502Z,25.17
2018-06-04T05:10:54.943Z,25.31
2018-06-04T05:13:23.015Z,25.58
2018-06-04T05:15:51.075Z,25.85
2018-06-04T05:18:19.138Z,26.05
2018-06-04T05:20:47.172Z,26.35
2018-06-04T05:23:15.344Z,26.66
2018-06-04T05:25:43.384Z,26.91
2018-06-04T05:28:11.421Z,27.30
2018-06-04T05:30:39.485Z,27.73
2018-06-04T05:33:07.523Z,27.82
2018-06-04T05:35:35.573Z,28.08
2018-06-04T05:38:03.640Z,28.62
2018-06-04T05:40:31.695Z,28.78
2018-06-04T05:42:59.745Z,28.95
2018-06-04T05:45:27.796Z,29.43
2018-06-04T05:47:55.955Z,29.47
2018-06-04T05:50:23.983Z,29.69
2018-06-04T05:52:52.032Z,30.04
2018-06-04T05:55:20.076Z,30.14
2018-06-04T05:57:48.108Z,30.35
2018-06-04T06:00:16.199Z,30.48
2018-06-04T06:02:44.245Z,30.37
2018-06-04T06:05:12.317Z,30.70
2018-06-04T06:07:40.727Z,30.78
2018-06-04T06:10:08.776Z,30.89
2018-06-04T06:12:36.811Z,30.62
2018-06-04T06:15:04.889Z,30.60
2018-06-04T06:17:32.942Z,30.98
2018-06-04T06:20:01.068Z,31.28
2018-06-04T06:22:29.202Z,31.40
2018-06-04T06:24:57.268Z,31.79
2018-06-04T06:27:25.300Z,31.89
2018-06-04T06:29:53.348Z,32.27
2018-06-04T06:32:21.461Z,31.95
2018-06-04T06:34:49.509Z,32.22
2018-06-04T06:37:17.571Z,32.46
2018-06-04T06:39:45.665Z,32.22
2018-06-04T06:42:13.716Z,32.23
2018-06-04T06:44:43.480Z,32.51
2018-06-04T06:47:11.585Z,32.76
2018-06-04T06:49:39.645Z,32.67
2018-06-04T06:52:07.691Z,32.74
2018-06-04T06:54:35.770Z,32.89
2018-06-04T06:57:03.841Z,33.32
2018-06-04T06:59:31.908Z,33.53
2018-06-04T07:01:59.985Z,33.80
2018-06-04T07:04:28.099Z,33.63
2018-06-04T07:06:56.183Z,33.38
2018-06-04T07:09:24.637Z,32.94
2018-06-04T07:11:52.775Z,32.70
2018-06-04T07:14:20.898Z,32.78
2018-06-04T07:16:48.972Z,32.75
2018-06-04T07:19:17.012Z,32.59
2018-06-04T07:21:45.099Z,32.90
2018-06-04T07:24:13.217Z,32.92
2018-06-04T07:26:41.462Z,32.81
2018-06-04T07:29:09.440Z,32.96
2018-06-04T07:31:37.489Z,32.95
2018-06-04T07:34:06.049Z,32.92
2018-06-04T07:36:36.189Z,32.98
2018-06-04T07:39:06.613Z,33.21
2018-06-04T07:41:34.891Z,33.33
2018-06-04T07:44:02.928Z,33.12
2018-06-04T07:46:31.119Z,33.16
2018-06-04T07:48:59.196Z,33.21
2018-06-04T07:51:27.852Z,33.19
2018-06-04T07:53:56.116Z,33.51
2018-06-04T07:56:24.337Z,33.09
2018-06-04T07:58:52.401Z,33.08
2018-06-04T08:01:20.453Z,33.00
2018-06-04T08:03:48.539Z,32.82
2018-06-04T08:06:18.702Z,32.49
2018-06-04T08:08:46.695Z,31.94
2018-06-04T08:11:14.744Z,31.81
2018-06-04T08:13:42.809Z,30.32
2018-06-04T08:16:10.962Z,29.12
2018-06-04T08:18:39.339Z,29.72
2018-06-04T08:21:07.364Z,30.38
2018-06-04T08:23:35.420Z,31.01
2018-06-04T08:26:03.912Z,31.35
2018-06-04T08:28:32.080Z,31.82
2018-06-04T08:31:00.289Z,31.02
2018-06-04T08:33:28.637Z,31.27
2018-06-04T08:35:56.753Z,31.34
2018-06-04T08:38:25.476Z,30.76
2018-06-04T08:40:53.559Z,30.82
2018-06-04T08:43:21.839Z,30.21
2018-06-04T08:45:50.097Z,29.27
2018-06-04T08:48:18.257Z,28.50
2018-06-04T08:50:46.288Z,28.10
2018-06-04T08:53:14.328Z,28.39
2018-06-04T08:55:42.435Z,28.96
2018-06-04T08:58:10.545Z,29.48
2018-06-04T09:00:38.584Z,30.05
2018-06-04T09:03:06.659Z,30.25
2018-06-04T09:05:34.700Z,30.27
2018-06-04T09:08:02.900Z,29.82
2018-06-04T09:10:30.976Z,29.38
2018-06-04T09:12:59.171Z,29.26
2018-06-04T09:15:27.228Z,28.97
2018-06-04T09:17:55.276Z,28.38
2018-06-04T09:20:23.445Z,28.30
2018-06-04T09:22:51.587Z,28.11
2018-06-04T09:25:19.665Z,28.40
2018-06-04T09:27:47.764Z,28.77
2018-06-04T09:30:15.799Z,29.04
2018-06-04T09:32:44.009Z,28.51
2018-06-04T09:35:12.069Z,27.78
2018-06-04T09:37:40.273Z,27.58
2018-06-04T09:40:08.308Z,27.16
2018-06-04T09:42:36.417Z,27.42
2018-06-04T09:45:04.513Z,28.26
2018-06-04T09:47:32.721Z,29.18
2018-06-04T09:50:00.804Z,29.60
2018-06-04T09:52:29.109Z,30.09
2018-06-04T09:54:57.176Z,29.94
2018-06-04T09:57:25.223Z,29.94
2018-06-04T09:59:53.320Z,30.17
2018-06-04T10:02:21.517Z,30.55
2018-06-04T10:04:49.592Z,29.97
2018-06-04T10:07:17.638Z,29.86
2018-06-04T10:09:45.835Z,29.63
2018-06-04T10:12:14.095Z,28.70
2018-06-04T10:14:42.756Z,28.31
2018-06-04T10:17:10.817Z,28.31
2018-06-04T10:19:38.876Z,28.19
2018-06-04T10:22:06.964Z,27.55
2018-06-04T10:24:35.078Z,27.19
2018-06-04T10:27:03.344Z,27.32
2018-06-04T10:29:31.412Z,27.12
2018-06-04T10:31:59.530Z,27.21
2018-06-04T10:34:27.576Z,26.81
2018-06-04T10:36:55.644Z,26.61
2018-06-04T10:39:23.708Z,26.83
2018-06-04T10:41:51.755Z,26.64
2018-06-04T10:44:19.970Z,26.71
2018-06-04T10:46:48.012Z,26.65
2018-06-04T10:49:16.171Z,26.71
2018-06-04T10:51:44.216Z,26.27
2018-06-04T10:54:12.569Z,26.04
2018-06-04T10:56:40.620Z,26.24
2018-06-04T10:59:08.732Z,26.25
2018-06-04T11:01:36.813Z,25.64
2018-06-04T11:04:04.914Z,25.76
2018-06-04T11:06:33.053Z,25.88
2018-06-04T11:09:01.174Z,25.70
2018-06-04T11:11:29.257Z,25.69
2018-06-04T11:13:57.389Z,25.86
2018-06-04T11:16:25.497Z,26.10
2018-06-04T11:18:53.605Z,26.17
2018-06-04T11:21:21.680Z,26.24
2018-06-04T11:23:49.719Z,25.94
2018-06-04T11:26:17.792Z,25.63
2018-06-04T11:28:45.932Z,25.69
2018-06-04T11:31:13.992Z,25.42
2018-06-04T11:33:42.317Z,25.23
2018-06-04T11:36:10.380Z,25.30
2018-06-04T11:38:38.416Z,25.05
2018-06-04T11:41:06.993Z,25.16
2018-06-04T11:43:35.081Z,25.09
2018-06-04T11:46:03.174Z,25.11
2018-06-04T11:48:31.329Z,25.02
2018-06-04T11:50:59.561Z,25.16
2018-06-04T11:53:27.757Z,25.00
2018-06-04T11:55:56.200Z,25.16
2018-06-04T11:58:24.282Z,25.09
2018-06-04T12:00:52.384Z,25.07
2018-06-04T12:03:20.463Z,25.15
2018-06-04T12:05:48.630Z,25.13
2018-06-04T12:08:16.990Z,24.93
2018-06-04T12:10:45.084Z,25.06
2018-06-04T12:13:13.180Z,24.70
2018-06-04T12:15:41.296Z,24.92
2018-06-04T12:18:09.385Z,25.06
2018-06-04T12:20:37.458Z,25.16
2018-06-04T12:23:05.828Z,25.22
2018-06-04T12:25:34.272Z,25.18
2018-06-04T12:28:03.088Z,25.00
2018-06-04T12:30:31.199Z,24.78
2018-06-04T12:32:59.266Z,24.75
2018-06-04T12:35:27.431Z,24.85
2018-06-04T12:37:55.559Z,24.94
2018-06-04T12:40:23.988Z,25.20
2018-06-04T12:42:52.164Z,25.00
2018-06-04T12:45:20.248Z,25.02
2018-06-04T12:47:48.281Z,25.13
2018-06-04T12:50:16.472Z,25.20
2018-06-04T12:52:44.503Z,25.23
2018-06-04T12:55:12.888Z,25.10
2018-06-04T12:57:40.930Z,24.97
2018-06-04T13:00:09.119Z,24.97
2018-06-04T13:02:38.707Z,25.12
2018-06-04T13:05:06.740Z,24.82
2018-06-04T13:07:35.275Z,24.78
2018-06-04T13:10:03.372Z,24.83
2018-06-04T13:12:31.484Z,24.60
2018-06-04T13:14:59.531Z,24.56
2018-06-04T13:17:27.890Z,24.62
2018-06-04T13:19:56.059Z,24.81
2018-06-04T13:22:24.104Z,24.71
2018-06-04T13:24:52.197Z,24.93
2018-06-04T13:27:20.339Z,25.12
2018-06-04T13:29:48.468Z,25.20
2018-06-04T13:32:16.496Z,25.21
2018-06-04T13:34:45.363Z,25.25
2018-06-04T13:37:13.909Z,25.28
2018-06-04T13:39:41.980Z,25.61
2018-06-04T13:42:10.032Z,25.73
2018-06-04T13:44:38.246Z,25.74
2018-06-04T13:47:06.326Z,25.77
2018-06-04T13:49:34.518Z,25.79
2018-06-04T13:52:02.640Z,25.62
2018-06-04T13:54:30.813Z,25.40
2018-06-04T13:56:58.876Z,25.14
2018-06-04T13:59:28.020Z,25.11
2018-06-04T14:01:56.172Z,25.16
2018-06-04T14:04:25.803Z,25.23
2018-06-04T14:06:53.851Z,25.46
2018-06-04T14:09:21.896Z,25.43
2018-06-04T14:11:50.072Z,25.43
2018-06-04T14:14:18.119Z,25.38
2018-06-04T14:16:46.184Z,25.02
2018-06-04T14:19:14.266Z,25.21
2018-06-04T14:21:42.311Z,25.28
2018-06-04T14:24:10.379Z,24.98
2018-06-04T14:26:38.431Z,25.11
2018-06-04T14:29:06.564Z,25.14
2018-06-04T14:31:34.604Z,25.16
2018-06-04T14:34:02.681Z,25.22
2018-06-04T14:36:30.784Z,25.27
2018-06-04T14:38:59.111Z,25.27
2018-06-04T14:41:27.156Z,24.98
2018-06-04T14:43:55.250Z,25.23
2018-06-04T14:46:23.317Z,25.38
2018-06-04T14:48:51.349Z,25.43
2018-06-04T14:51:19.709Z,25.43
2018-06-04T14:53:47.795Z,25.30
2018-06-04T14:56:15.866Z,25.37
2018-06-04T14:58:43.969Z,25.35
2018-06-04T15:01:12.033Z,25.45
2018-06-04T15:03:40.143Z,25.17
2018-06-04T15:06:08.225Z,25.24
2018-06-04T15:08:36.407Z,25.31
2018-06-04T15:11:04.522Z,25.24
2018-06-04T15:13:32.660Z,25.12
2018-06-04T15:16:00.989Z,25.33
2018-06-04T15:18:29.796Z,25.24
2018-06-04T15:20:58.343Z,25.26
2018-06-04T15:23:26.489Z,25.44
2018-06-04T15:25:54.634Z,25.44
2018-06-04T15:28:22.742Z,25.59
2018-06-04T15:30:50.854Z,25.73
2018-06-04T15:33:19.177Z,25.64
2018-06-04T15:35:47.512Z,25.55
2018-06-04T15:38:15.665Z,25.49
2018-06-04T15:40:43.724Z,25.32
2018-06-04T15:43:11.856Z,25.20
2018-06-04T15:45:39.928Z,25.41
2018-06-04T15:48:08.019Z,25.40
2018-06-04T15:50:36.088Z,25.41
2018-06-04T15:53:04.150Z,25.40
2018-06-04T15:55:32.568Z,25.35
2018-06-04T15:58:00.608Z,25.15
2018-06-04T16:00:28.669Z,25.26
2018-06-04T16:02:56.721Z,25.15
2018-06-04T16:05:24.772Z,24.67
2018-06-04T16:07:52.808Z,25.12
2018-06-04T16:10:21.144Z,25.11
2018-06-04T16:12:49.199Z,24.88
2018-06-04T16:15:17.322Z,24.76
2018-06-04T16:17:45.410Z,24.93
2018-06-04T16:20:13.455Z,25.05
2018-06-04T16:22:41.488Z,24.96
2018-06-04T16:25:09.530Z,24.87
2018-06-04T16:27:37.980Z,24.72
2018-06-04T16:30:06.110Z,24.70
2018-06-04T16:32:34.240Z,24.62
2018-06-04T16:35:02.456Z,24.70
2018-06-04T16:37:30.635Z,24.67
2018-06-04T16:39:58.728Z,24.73
2018-06-04T16:42:26.788Z,24.68
2018-06-04T16:44:54.881Z,24.77
2018-06-04T16:47:22.929Z,24.34
2018-06-04T16:49:51.065Z,24.30
2018-06-04T16:52:19.169Z,24.49
2018-06-04T16:54:47.249Z,24.51
2018-06-04T16:57:15.315Z,24.55
2018-06-04T16:59:43.366Z,24.50
2018-06-04T17:02:14.001Z,24.28
2018-06-04T17:04:42.372Z,24.46
2018-06-04T17:07:10.628Z,24.36
2018-06-04T17:09:38.925Z,24.25
2018-06-04T17:12:07.185Z,24.22
2018-06-04T17:14:35.636Z,24.32
2018-06-04T17:17:04.339Z,24.27
2018-06-04T17:19:33.703Z,24.21
2018-06-04T17:22:02.547Z,24.09
2018-06-04T17:24:30.813Z,24.03
2018-06-04T17:26:58.956Z,24.04
2018-06-04T17:29:27.154Z,24.00
2018-06-04T17:31:55.833Z,23.87
2018-06-04T17:34:23.892Z,23.83
2018-06-04T17:36:54.090Z,23.81
2018-06-04T17:39:22.223Z,23.53
2018-06-04T17:41:50.291Z,23.57
2018-06-04T17:44:18.468Z,23.58
2018-06-04T17:46:46.533Z,23.47
2018-06-04T17:49:14.632Z,23.33
2018-06-04T17:51:42.911Z,23.45
2018-06-04T17:54:11.099Z,23.28
2018-06-04T17:56:39.555Z,23.25
2018-06-04T17:59:08.095Z,23.27
2018-06-04T18:01:44.151Z,23.32
2018-06-04T18:04:12.213Z,23.29
2018-06-04T18:06:40.455Z,23.18
2018-06-04T18:09:10.522Z,22.98
2018-06-04T18:11:38.643Z,23.04
2018-06-04T18:14:06.805Z,22.95
2018-06-04T18:16:35.155Z,22.86
2018-06-04T18:19:03.876Z,22.82
2018-06-04T18:21:32.247Z,22.83
2018-06-04T18:24:00.376Z,22.81
2018-06-04T18:26:29.034Z,22.69
2018-06-04T18:28:57.194Z,22.54
2018-06-04T18:31:25.301Z,22.64
2018-06-04T18:33:53.667Z,22.53
2018-06-04T18:36:21.911Z,22.41
2018-06-04T18:38:50.179Z,22.46
2018-06-04T18:41:18.469Z,22.35
2018-06-04T18:43:46.523Z,22.35
2018-06-04T18:46:14.607Z,22.29
2018-06-04T18:48:42.688Z,22.08
2018-06-04T18:51:10.792Z,22.02
2018-06-04T18:53:38.983Z,21.91
2018-06-04T18:56:07.064Z,21.91
2018-06-04T18:58:35.175Z,21.86
2018-06-04T19:01:03.334Z,21.74
2018-06-04T19:03:31.608Z,21.59
2018-06-04T19:05:59.910Z,21.46
2018-06-04T19:08:28.070Z,21.39
2018-06-04T19:10:56.168Z,21.31
2018-06-04T19:13:31.179Z,21.18
2018-06-04T19:15:59.377Z,21.07
2018-06-04T19:18:27.500Z,20.89
2018-06-04T19:20:55.713Z,20.79
2018-06-04T19:23:23.889Z,20.69
2018-06-04T19:25:52.023Z,20.58
2018-06-04T19:28:20.076Z,20.46
2018-06-04T19:30:48.220Z,20.42
2018-06-04T19:33:16.385Z,20.30
2018-06-04T19:35:44.831Z,20.16
2018-06-04T19:38:13.561Z,20.06
2018-06-04T19:40:42.188Z,20.08
2018-06-04T19:43:10.533Z,20.01
2018-06-04T19:45:38.935Z,19.89
2018-06-04T19:48:07.856Z,19.77
2018-06-04T19:50:35.991Z,19.74
2018-06-04T19:53:05.386Z,19.68
2018-06-04T19:55:34.011Z,19.65
2018-06-04T19:58:02.206Z,19.52
2018-06-04T20:00:30.408Z,19.53
2018-06-04T20:02:59.294Z,19.38
2018-06-04T20:05:27.359Z,19.32
2018-06-04T20:07:55.515Z,19.26
2018-06-04T20:10:23.570Z,19.18
2018-06-04T20:12:51.887Z,19.10
2018-06-04T20:15:20.215Z,19.04
2018-06-04T20:17:48.424Z,18.97
2018-06-04T20:20:16.519Z,18.95
2018-06-04T20:22:44.715Z,18.90
2018-06-04T20:25:12.783Z,18.80
2018-06-04T20:27:40.827Z,18.75
2018-06-04T20:30:08.900Z,18.69
2018-06-04T20:32:36.963Z,18.60
2018-06-04T20:35:05.118Z,18.58
2018-06-04T20:37:33.515Z,18.54
2018-06-04T20:40:01.579Z,18.49
2018-06-04T20:42:29.687Z,18.47
2018-06-04T20:44:57.788Z,18.37
2018-06-04T20:47:25.835Z,18.30
2018-06-04T20:49:53.916Z,18.27
2018-06-04T20:52:21.971Z,18.24
2018-06-04T20:54:50.032Z,18.20
2018-06-04T20:57:18.097Z,18.17
2018-06-04T20:59:46.147Z,18.17
2018-06-04T21:02:14.198Z,18.15
2018-06-04T21:04:42.256Z,18.11
2018-06-04T21:07:11.456Z,18.09
2018-06-04T21:09:39.553Z,18.01
2018-06-04T21:12:07.632Z,18.01
2018-06-04T21:14:35.753Z,18.01
2018-06-04T21:17:03.839Z,17.94
2018-06-04T21:19:31.996Z,17.89
2018-06-04T21:22:00.067Z,17.92
2018-06-04T21:24:28.183Z,17.88
2018-06-04T21:26:56.304Z,17.84
2018-06-04T21:29:24.381Z,17.86
2018-06-04T21:31:52.436Z,17.87
2018-06-04T21:34:20.506Z,17.88
2018-06-04T21:36:48.574Z,17.86
2018-06-04T21:39:16.952Z,17.70
2018-06-04T21:41:45.007Z,17.72
2018-06-04T21:44:13.084Z,17.78
2018-06-04T21:46:41.531Z,17.82
2018-06-04T21:49:10.140Z,17.83
2018-06-04T21:51:38.245Z,17.79
2018-06-04T21:54:06.471Z,17.78
2018-06-04T21:56:34.705Z,17.77
2018-06-04T21:59:02.855Z,17.85
2018-06-04T22:01:30.919Z,17.95
2018-06-04T22:03:58.972Z,18.02
2018-06-04T22:06:27.011Z,17.98
2018-06-04T22:08:55.054Z,17.80
2018-06-04T22:11:23.115Z,17.84
2018-06-04T22:13:51.215Z,17.98
2018-06-04T22:16:19.248Z,18.03
2018-06-04T22:18:47.307Z,18.10
2018-06-04T22:21:15.370Z,18.15
2018-06-04T22:23:43.427Z,18.21
2018-06-04T22:26:11.477Z,18.19
2018-06-04T22:28:39.795Z,18.27
2018-06-04T22:31:07.839Z,18.31
2018-06-04T22:33:35.911Z,18.27
2018-06-04T22:36:04.191Z,18.30
2018-06-04T22:38:32.420Z,18.24
2018-06-04T22:41:00.472Z,18.24
2018-06-04T22:43:28.549Z,18.19
2018-06-04T22:45:56.587Z,18.27
2018-06-04T22:48:24.631Z,18.29
2018-06-04T22:50:52.688Z,18.29
2018-06-04T22:53:20.751Z,18.32
2018-06-04T22:55:48.822Z,18.36
2018-06-04T22:58:16.886Z,18.31
2018-06-04T23:00:44.924Z,18.29
2018-06-04T23:03:12.984Z,18.27
2018-06-04T23:05:41.035Z,18.32
2018-06-04T23:08:09.082Z,18.31
2018-06-04T23:10:37.151Z,18.32
2018-06-04T23:13:05.199Z,18.32
2018-06-04T23:15:33.267Z,18.28
2018-06-04T23:18:01.355Z,18.26
2018-06-04T23:20:29.693Z,18.18
2018-06-04T23:22:57.780Z,18.25
2018-06-04T23:25:25.838Z,18.27
2018-06-04T23:27:53.977Z,18.28
2018-06-04T23:30:22.086Z,18.25
2018-06-04T23:32:50.181Z,18.32
2018-06-04T23:35:18.552Z,18.38
2018-06-04T23:37:46.611Z,18.35
2018-06-04T23:40:14.647Z,18.40
2018-06-04T23:42:42.722Z,18.44
2018-06-04T23:45:10.763Z,18.43
2018-06-04T23:47:38.835Z,18.42
2018-06-04T23:50:07.019Z,18.33
2018-06-04T23:52:35.114Z,18.34
2018-06-04T23:55:03.572Z,18.38
2018-06-04T23:57:31.821Z,18.39
2018-06-04T23:59:59.986Z,18.38
